Time;durP1;ratioP1;P1;durP2;ratioP2;P2;SDS_P1;SDS_P2;PMS_P1;PMS_P2;Temp;Humidity;BMP_temperature;BMP_pressure;BME280_temperature;BME280_humidity;BME280_pressure;Samples;Min_cycle;Max_cycle;Signal;HPM_P1;HPM_P2
2023/12/09 00:02:07;;;;;;;23.50;11.60;;;7.10;1.00;;;;;;5010938;28;20661;-74
2023/12/09 00:04:33;;;;;;;30.90;12.40;;;7.10;1.00;;;;;;5002045;28;20199;-75
2023/12/09 00:06:58;;;;;;;32.57;13.57;;;7.10;1.00;;;;;;4991575;28;20237;-73
2023/12/09 00:09:24;;;;;;;29.57;11.63;;;7.20;1.00;;;;;;5005461;28;20229;-74
2023/12/09 00:11:49;;;;;;;25.00;12.90;;;7.20;1.00;;;;;;5000648;28;20175;-75
2023/12/09 00:14:15;;;;;;;24.53;11.70;;;7.30;1.00;;;;;;4995587;28;20661;-74
2023/12/09 00:16:40;;;;;;;31.17;14.00;;;7.20;1.00;;;;;;5005679;28;20182;-75
2023/12/09 00:19:07;;;;;;;25.47;11.97;;;7.20;1.00;;;;;;4999972;28;20214;-74
2023/12/09 00:21:32;;;;;;;27.60;12.07;;;7.20;1.00;;;;;;4996940;28;20716;-74
2023/12/09 00:23:59;;;;;;;24.40;12.50;;;7.20;1.00;;;;;;4992067;28;20434;-75
2023/12/09 00:26:24;;;;;;;24.10;11.63;;;7.20;1.00;;;;;;4993344;28;20320;-74
2023/12/09 00:28:50;;;;;;;24.23;11.20;;;7.20;1.00;;;;;;5004058;28;20512;-76
2023/12/09 00:31:16;;;;;;;23.00;11.30;;;7.20;1.00;;;;;;4998353;28;20998;-77
2023/12/09 00:33:41;;;;;;;23.70;11.77;;;7.20;1.00;;;;;;4991328;28;20422;-74
2023/12/09 00:36:07;;;;;;;29.70;12.20;;;7.20;1.00;;;;;;4999135;28;20210;-73
2023/12/09 00:38:33;;;;;;;24.97;12.53;;;7.30;1.00;;;;;;4994311;28;20236;-73
2023/12/09 00:40:58;;;;;;;29.27;12.27;;;7.30;1.00;;;;;;4997496;28;20297;-75
2023/12/09 00:43:24;;;;;;;24.90;11.90;;;7.30;1.00;;;;;;5006295;28;20284;-74
2023/12/09 00:45:49;;;;;;;23.00;10.70;;;7.30;1.00;;;;;;4995614;28;20257;-73
2023/12/09 00:48:15;;;;;;;23.00;11.93;;;7.40;1.00;;;;;;4996878;28;20618;-74
2023/12/09 00:50:40;;;;;;;25.90;12.07;;;7.30;1.00;;;;;;5003846;28;20230;-72
2023/12/09 00:53:06;;;;;;;19.33;11.07;;;7.30;1.00;;;;;;4996946;28;20187;-72
2023/12/09 00:55:32;;;;;;;23.47;11.33;;;7.30;1.00;;;;;;4990719;28;20179;-74
2023/12/09 00:57:58;;;;;;;24.53;12.30;;;7.30;1.00;;;;;;5000747;28;20480;-74
2023/12/09 01:00:25;;;;;;;22.40;11.07;;;7.30;1.00;;;;;;4999388;28;20214;-75
2023/12/09 01:02:51;;;;;;;25.07;10.93;;;7.30;1.00;;;;;;4998359;28;20601;-75
2023/12/09 01:05:17;;;;;;;20.43;10.73;;;7.30;1.00;;;;;;4992053;28;20438;-74
2023/12/09 01:07:42;;;;;;;17.93;9.50;;;7.30;1.00;;;;;;4999167;28;20195;-74
2023/12/09 01:10:08;;;;;;;24.77;11.93;;;7.30;1.00;;;;;;4989931;28;20211;-76
2023/12/09 01:12:34;;;;;;;18.37;10.00;;;7.30;1.00;;;;;;5001625;28;20646;-73
2023/12/09 01:14:59;;;;;;;29.77;11.10;;;7.80;1.00;;;;;;4995271;28;20561;-75
2023/12/09 01:17:25;;;;;;;23.90;11.80;;;7.20;1.00;;;;;;5003819;28;20183;-74
2023/12/09 01:19:50;;;;;;;22.17;11.10;;;7.20;1.00;;;;;;4996671;28;20205;-75
2023/12/09 01:22:16;;;;;;;20.90;10.70;;;7.20;1.00;;;;;;5000613;28;20202;-74
2023/12/09 01:24:42;;;;;;;23.97;11.30;;;7.20;1.00;;;;;;4992554;28;20704;-74
2023/12/09 01:27:08;;;;;;;19.40;10.53;;;7.30;1.00;;;;;;4997321;28;20182;-73
2023/12/09 01:29:33;;;;;;;23.77;10.93;;;7.30;1.00;;;;;;4994040;28;20472;-73
2023/12/09 01:31:59;;;;;;;24.20;11.00;;;7.30;1.00;;;;;;4999118;28;20183;-74
2023/12/09 01:34:24;;;;;;;24.50;11.07;;;7.30;1.00;;;;;;4989696;28;20190;-74
2023/12/09 01:36:50;;;;;;;25.70;12.43;;;7.30;1.00;;;;;;4990041;28;20167;-74
2023/12/09 01:39:15;;;;;;;18.50;11.03;;;7.30;1.00;;;;;;4988794;28;20215;-74
2023/12/09 01:41:41;;;;;;;23.97;12.00;;;7.30;1.00;;;;;;4990242;28;20306;-74
2023/12/09 01:44:06;;;;;;;24.23;11.17;;;7.30;1.00;;;;;;4990521;28;20269;-74
2023/12/09 01:46:33;;;;;;;22.50;10.30;;;7.30;1.00;;;;;;4989575;28;20204;-74
2023/12/09 01:48:58;;;;;;;24.70;11.83;;;7.30;1.00;;;;;;5003536;28;20764;-74
2023/12/09 01:51:25;;;;;;;22.43;11.93;;;7.30;1.00;;;;;;4988641;28;20561;-75
2023/12/09 01:53:52;;;;;;;24.00;10.93;;;7.30;1.00;;;;;;4989254;28;20542;-74
2023/12/09 01:56:20;;;;;;;21.90;11.00;;;7.30;1.00;;;;;;4990661;28;20955;-74
2023/12/09 01:58:45;;;;;;;26.43;11.43;;;7.20;1.00;;;;;;4997075;28;20469;-74
2023/12/09 02:01:13;;;;;;;20.83;12.37;;;7.20;1.00;;;;;;4999049;28;20438;-74
2023/12/09 02:03:38;;;;;;;17.33;10.30;;;7.30;1.00;;;;;;5007857;28;20196;-76
2023/12/09 02:06:04;;;;;;;21.33;11.57;;;7.30;1.00;;;;;;4992931;28;20525;-74
2023/12/09 02:08:30;;;;;;;26.73;10.57;;;7.30;1.00;;;;;;5005909;28;20616;-74
2023/12/09 02:11:04;;;;;;;23.03;10.47;;;7.30;1.00;;;;;;4995325;28;20210;-74
2023/12/09 02:13:56;;;;;;;26.40;10.90;;;7.30;1.00;;;;;;4999577;28;20189;-75
2023/12/09 02:16:51;;;;;;;19.00;9.80;;;7.30;1.00;;;;;;5000727;28;20429;-74
2023/12/09 02:19:17;;;;;;;19.27;10.73;;;7.20;1.00;;;;;;4989472;28;20452;-74
2023/12/09 02:22:03;;;;;;;32.33;10.97;;;7.20;1.00;;;;;;5002331;28;20441;-74
2023/12/09 02:24:29;;;;;;;25.90;10.77;;;7.20;1.00;;;;;;4996695;28;20507;-74
2023/12/09 02:27:01;;;;;;;23.07;11.27;;;7.20;1.00;;;;;;4987184;28;20945;-74
2023/12/09 02:29:30;;;;;;;25.07;13.63;;;7.20;1.00;;;;;;5006700;28;20500;-74
2023/12/09 02:32:02;;;;;;;24.03;11.63;;;7.20;1.00;;;;;;4982139;28;20455;-73
2023/12/09 02:34:29;;;;;;;23.43;11.33;;;7.30;1.00;;;;;;4999653;28;20417;-74
2023/12/09 02:36:57;;;;;;;26.17;10.87;;;7.40;1.00;;;;;;4995222;28;20428;-74
2023/12/09 02:39:22;;;;;;;24.60;11.90;;;7.50;1.00;;;;;;5002202;28;20458;-73
2023/12/09 02:41:49;;;;;;;19.47;10.80;;;7.50;1.00;;;;;;5010898;28;20965;-75
2023/12/09 02:44:14;;;;;;;23.57;11.90;;;7.40;1.00;;;;;;4998792;28;20195;-75
2023/12/09 02:46:40;;;;;;;25.90;11.20;;;7.40;1.00;;;;;;4999997;28;20440;-75
2023/12/09 02:49:05;;;;;;;24.13;11.60;;;7.30;1.00;;;;;;5006114;28;20203;-73
2023/12/09 02:51:31;;;;;;;24.97;10.90;;;7.40;1.00;;;;;;4996128;28;20179;-72
2023/12/09 02:53:56;;;;;;;27.70;11.50;;;7.40;1.00;;;;;;5000412;28;20187;-77
2023/12/09 02:56:22;;;;;;;27.07;12.17;;;7.40;1.00;;;;;;5012209;28;20187;-73
2023/12/09 02:58:47;;;;;;;25.27;11.53;;;7.30;1.00;;;;;;5007837;28;20183;-73
2023/12/09 03:01:13;;;;;;;28.33;11.90;;;7.40;1.00;;;;;;4998511;28;20662;-74
2023/12/09 03:03:38;;;;;;;31.67;12.37;;;7.40;1.00;;;;;;5005089;28;20206;-74
2023/12/09 03:06:04;;;;;;;27.00;11.87;;;7.40;1.00;;;;;;4999733;28;20194;-74
2023/12/09 03:08:30;;;;;;;26.53;12.57;;;7.40;1.00;;;;;;4998566;28;20760;-74
2023/12/09 03:10:55;;;;;;;27.70;11.80;;;;;;;;;;4997495;28;20342;-74
2023/12/09 03:13:21;;;;;;;24.10;11.50;;;7.40;1.00;;;;;;4996222;28;20222;-75
2023/12/09 03:15:46;;;;;;;23.10;10.67;;;7.40;1.00;;;;;;5003134;28;20190;-74
2023/12/09 03:18:12;;;;;;;32.50;11.67;;;7.40;1.00;;;;;;5009811;28;20852;-71
2023/12/09 03:20:37;;;;;;;23.77;11.67;;;7.40;1.00;;;;;;5003636;28;20221;-74
2023/12/09 03:23:03;;;;;;;25.83;12.27;;;7.40;1.00;;;;;;5005106;28;20302;-74
2023/12/09 03:25:28;;;;;;;27.10;13.37;;;7.50;1.00;;;;;;5007539;28;20230;-74
2023/12/09 03:27:54;;;;;;;27.97;12.53;;;7.50;1.00;;;;;;4999053;28;20187;-74
2023/12/09 03:30:20;;;;;;;29.17;13.17;;;7.50;1.00;;;;;;5000948;28;20832;-74
2023/12/09 03:32:46;;;;;;;25.57;13.27;;;7.50;1.00;;;;;;5000924;28;20186;-74
2023/12/09 03:35:12;;;;;;;34.83;13.50;;;7.60;1.00;;;;;;5000526;28;20433;-74
2023/12/09 03:37:38;;;;;;;33.70;11.90;;;7.70;1.00;;;;;;5007549;28;20210;-74
2023/12/09 03:40:04;;;;;;;28.07;11.90;;;7.60;1.00;;;;;;5003973;28;20485;-74
2023/12/09 03:42:29;;;;;;;29.50;11.70;;;7.60;1.00;;;;;;5000082;28;20201;-74
2023/12/09 03:44:55;;;;;;;32.93;11.73;;;7.60;1.00;;;;;;4999382;28;20426;-76
2023/12/09 03:47:20;;;;;;;33.10;11.87;;;7.70;1.00;;;;;;5000056;28;20538;-74
2023/12/09 03:49:46;;;;;;;28.80;12.37;;;7.60;1.00;;;;;;5008875;28;20213;-74
2023/12/09 03:52:12;;;;;;;23.90;12.07;;;7.70;1.00;;;;;;5002517;28;20266;-74
2023/12/09 03:54:39;;;;;;;31.10;12.37;;;7.70;1.00;;;;;;5008182;28;20175;-74
2023/12/09 03:57:04;;;;;;;25.37;11.70;;;7.70;1.00;;;;;;4987975;28;20661;-74
2023/12/09 03:59:30;;;;;;;25.77;11.80;;;7.70;1.00;;;;;;4996038;28;20442;-73
2023/12/09 04:01:55;;;;;;;27.47;11.30;;;7.70;1.00;;;;;;4997612;28;20191;-71
2023/12/09 04:04:21;;;;;;;25.50;12.20;;;7.70;1.00;;;;;;5004874;28;20191;-74
2023/12/09 04:06:46;;;;;;;28.73;12.83;;;7.60;1.00;;;;;;4995220;28;20202;-74
2023/12/09 04:09:12;;;;;;;23.43;12.10;;;7.60;1.00;;;;;;4995394;28;20211;-73
2023/12/09 04:11:37;;;;;;;30.97;12.83;;;7.70;1.00;;;;;;4997753;28;20523;-74
2023/12/09 04:14:04;;;;;;;25.73;12.57;;;7.70;1.00;;;;;;4998914;28;20179;-74
2023/12/09 04:16:29;;;;;;;28.17;13.50;;;7.70;1.00;;;;;;4996492;28;20235;-74
2023/12/09 04:18:55;;;;;;;32.57;13.50;;;7.70;1.00;;;;;;5005014;28;20956;-74
2023/12/09 04:21:21;;;;;;;24.97;11.90;;;7.70;1.00;;;;;;4990994;28;20175;-76
2023/12/09 04:23:47;;;;;;;26.70;12.70;;;7.80;1.00;;;;;;4990473;28;20179;-74
2023/12/09 04:26:12;;;;;;;24.60;11.57;;;7.70;1.00;;;;;;4998500;28;20482;-73
2023/12/09 04:28:38;;;;;;;29.63;12.00;;;7.70;1.00;;;;;;4990404;28;20431;-71
2023/12/09 04:31:04;;;;;;;26.80;13.00;;;7.70;1.00;;;;;;4998713;28;20202;-74
2023/12/09 04:33:29;;;;;;;23.00;12.00;;;7.70;1.00;;;;;;5000673;28;20422;-74
2023/12/09 04:35:55;;;;;;;25.87;11.63;;;7.80;1.00;;;;;;5000817;28;20309;-75
2023/12/09 04:38:21;;;;;;;32.83;11.97;;;7.80;1.00;;;;;;5002532;28;20214;-74
2023/12/09 04:40:46;;;;;;;27.23;11.60;;;7.80;1.00;;;;;;5004625;28;20217;-74
2023/12/09 04:43:12;;;;;;;27.50;13.00;;;7.90;1.00;;;;;;4996751;28;20282;-74
2023/12/09 04:45:37;;;;;;;31.20;11.70;;;7.90;1.00;;;;;;5001755;28;20186;-75
2023/12/09 04:48:03;;;;;;;24.43;11.30;;;7.90;1.00;;;;;;5007365;28;20189;-74
2023/12/09 04:50:29;;;;;;;21.60;11.47;;;7.90;1.00;;;;;;5000318;28;20400;-74
2023/12/09 04:52:54;;;;;;;26.37;12.40;;;7.90;1.00;;;;;;4996230;28;20179;-74
2023/12/09 04:55:20;;;;;;;26.27;12.03;;;7.90;1.00;;;;;;4998009;28;20191;-74
2023/12/09 04:57:45;;;;;;;23.63;11.10;;;7.90;1.00;;;;;;4999520;28;20189;-75
2023/12/09 05:00:11;;;;;;;26.67;11.27;;;7.90;1.00;;;;;;5003720;28;20206;-74
2023/12/09 05:02:37;;;;;;;22.17;11.00;;;8.00;1.00;;;;;;4996761;28;20282;-74
2023/12/09 05:05:04;;;;;;;23.80;12.07;;;7.90;1.00;;;;;;4997866;28;20185;-74
2023/12/09 05:07:30;;;;;;;36.77;10.83;;;7.90;1.00;;;;;;4999510;28;20438;-75
2023/12/09 05:09:56;;;;;;;34.57;10.60;;;8.00;1.00;;;;;;5001569;28;20501;-74
2023/12/09 05:12:21;;;;;;;21.33;10.20;;;7.90;1.00;;;;;;4991853;28;20662;-74
2023/12/09 05:14:47;;;;;;;27.17;11.80;;;7.90;1.00;;;;;;5006146;28;20257;-74
2023/12/09 05:17:12;;;;;;;22.23;10.10;;;7.90;1.00;;;;;;5001367;28;20265;-74
2023/12/09 05:19:38;;;;;;;23.60;10.30;;;7.90;1.00;;;;;;5008352;28;20652;-74
2023/12/09 05:22:03;;;;;;;23.63;10.90;;;7.90;1.00;;;;;;5000363;28;20190;-76
2023/12/09 05:24:29;;;;;;;25.20;11.33;;;7.90;1.00;;;;;;4992498;28;20198;-74
2023/12/09 05:26:55;;;;;;;25.30;11.27;;;6.10;1.00;;;;;;4994155;28;20178;-76
2023/12/09 05:29:21;;;;;;;25.63;10.60;;;7.90;1.00;;;;;;5006363;28;20208;-74
2023/12/09 05:31:46;;;;;;;24.60;10.30;;;7.90;1.00;;;;;;4995290;28;20513;-74
2023/12/09 05:34:12;;;;;;;22.17;10.33;;;7.90;1.00;;;;;;5004656;28;20224;-74
2023/12/09 05:36:38;;;;;;;25.30;10.70;;;7.90;1.00;;;;;;5001476;28;20677;-74
2023/12/09 05:39:05;;;;;;;24.17;10.53;;;7.90;1.00;;;;;;5005427;28;20206;-74
2023/12/09 05:41:30;;;;;;;21.27;10.70;;;7.90;1.00;;;;;;4998799;28;20210;-76
2023/12/09 05:43:56;;;;;;;25.27;10.30;;;7.90;1.00;;;;;;5003886;28;20833;-74
2023/12/09 05:46:21;;;;;;;21.20;10.27;;;7.90;1.00;;;;;;4999857;28;20656;-73
2023/12/09 05:48:48;;;;;;;20.70;10.43;;;8.00;1.00;;;;;;5001236;28;20569;-75
2023/12/09 05:51:14;;;;;;;23.00;10.47;;;7.90;1.00;;;;;;4994016;28;20234;-74
2023/12/09 05:53:40;;;;;;;25.43;9.90;;;8.00;1.00;;;;;;4991434;28;20458;-74
2023/12/09 05:56:09;;;;;;;27.03;10.53;;;7.90;1.00;;;;;;4990038;28;20270;-74
2023/12/09 05:58:35;;;;;;;26.60;10.63;;;8.00;1.00;;;;;;5007674;28;20868;-74
2023/12/09 06:01:00;;;;;;;17.83;9.77;;;8.00;1.00;;;;;;4993271;28;20481;-74
2023/12/09 06:03:26;;;;;;;31.47;10.43;;;8.00;1.00;;;;;;4992714;28;20182;-74
2023/12/09 06:05:51;;;;;;;20.73;9.50;;;8.00;1.00;;;;;;5008550;28;20179;-76
2023/12/09 06:08:17;;;;;;;18.00;8.93;;;7.90;1.00;;;;;;4995750;28;20214;-74
2023/12/09 06:10:42;;;;;;;22.27;10.40;;;9.70;1.00;;;;;;5000866;28;20689;-72
2023/12/09 06:13:08;;;;;;;19.30;9.50;;;7.90;1.00;;;;;;5011951;28;20191;-73
2023/12/09 06:15:33;;;;;;;22.27;9.13;;;8.00;1.00;;;;;;5002358;28;20185;-74
2023/12/09 06:17:59;;;;;;;19.77;9.87;;;8.00;1.00;;;;;;5013277;28;20179;-74
2023/12/09 06:20:24;;;;;;;20.80;8.17;;;8.00;1.00;;;;;;5006622;28;20203;-74
2023/12/09 06:22:50;;;;;;;15.83;9.20;;;8.00;1.00;;;;;;5001395;28;20186;-74
2023/12/09 06:25:15;;;;;;;21.00;8.63;;;8.00;1.00;;;;;;4993520;28;20269;-74
2023/12/09 06:27:41;;;;;;;21.10;8.87;;;8.00;1.00;;;;;;4990788;28;21453;-74
2023/12/09 06:30:08;;;;;;;22.27;9.03;;;8.00;1.00;;;;;;5011211;28;20206;-75
2023/12/09 06:32:34;;;;;;;19.87;9.40;;;8.00;1.00;;;;;;4994177;28;20187;-74
2023/12/09 06:35:00;;;;;;;16.53;9.50;;;7.90;1.00;;;;;;4997851;28;20578;-73
2023/12/09 06:37:25;;;;;;;25.30;9.80;;;7.90;1.00;;;;;;4997063;28;20179;-75
2023/12/09 06:39:50;;;;;;;20.87;8.80;;;7.80;1.00;;;;;;4996396;28;20214;-76
2023/12/09 06:42:16;;;;;;;24.23;9.27;;;7.90;1.00;;;;;;4994760;28;20214;-74
2023/12/09 06:44:41;;;;;;;20.90;9.10;;;7.90;1.00;;;;;;4997506;28;20183;-74
2023/12/09 06:47:09;;;;;;;19.73;9.43;;;8.00;1.00;;;;;;5002143;28;20555;-76
2023/12/09 06:49:35;;;;;;;20.63;9.30;;;8.00;1.00;;;;;;4992770;28;20207;-74
2023/12/09 06:52:00;;;;;;;26.53;10.40;;;8.00;1.00;;;;;;5000220;28;21099;-74
2023/12/09 06:54:26;;;;;;;19.97;8.70;;;8.00;1.00;;;;;;4992109;28;20793;-74
2023/12/09 06:56:52;;;;;;;18.60;9.20;;;8.00;1.00;;;;;;4997994;28;20181;-74
2023/12/09 06:59:17;;;;;;;22.20;9.47;;;8.00;1.00;;;;;;5006881;28;20446;-75
2023/12/09 07:01:43;;;;;;;17.50;8.17;;;8.10;1.00;;;;;;5004862;28;20190;-74
2023/12/09 07:04:09;;;;;;;21.97;8.43;;;8.10;1.00;;;;;;5008629;28;20653;-74
2023/12/09 07:06:35;;;;;;;14.37;7.90;;;8.10;1.00;;;;;;5006788;28;20183;-74
2023/12/09 07:09:00;;;;;;;17.23;8.07;;;8.30;1.00;;;;;;4998964;28;20202;-74
2023/12/09 07:11:26;;;;;;;16.83;8.40;;;8.30;1.00;;;;;;4996312;28;20427;-74
2023/12/09 07:13:52;;;;;;;22.40;8.83;;;8.30;1.00;;;;;;5004977;28;20182;-73
2023/12/09 07:16:18;;;;;;;18.53;8.27;;;8.30;1.00;;;;;;4994917;28;20238;-74
2023/12/09 07:18:47;;;;;;;17.70;7.83;;;8.30;1.00;;;;;;5006220;28;20270;-73
2023/12/09 07:21:13;;;;;;;16.73;8.20;;;8.30;1.00;;;;;;5000771;28;20426;-75
2023/12/09 07:23:40;;;;;;;15.97;7.87;;;8.30;1.00;;;;;;5000710;28;20434;-73
2023/12/09 07:26:06;;;;;;;17.67;8.40;;;8.30;1.00;;;;;;4991750;28;20443;-73
2023/12/09 07:28:32;;;;;;;16.23;8.77;;;8.40;1.00;;;;;;5004771;28;20428;-74
2023/12/09 07:30:57;;;;;;;17.83;8.33;;;8.40;1.00;;;;;;5004809;28;20987;-73
2023/12/09 07:33:23;;;;;;;19.13;8.00;;;8.40;1.00;;;;;;5008686;28;20182;-73
2023/12/09 07:35:49;;;;;;;16.60;8.20;;;8.30;1.00;;;;;;5008733;28;20183;-72
2023/12/09 07:38:14;;;;;;;17.13;8.80;;;8.40;1.00;;;;;;5007313;28;20189;-72
2023/12/09 07:40:41;;;;;;;16.80;7.90;;;8.40;1.00;;;;;;5011485;28;20360;-73
2023/12/09 07:43:06;;;;;;;22.10;8.60;;;8.40;1.00;;;;;;5006960;28;20191;-73
2023/12/09 07:45:33;;;;;;;13.00;7.73;;;8.50;1.00;;;;;;5000434;28;20429;-74
2023/12/09 07:47:58;;;;;;;21.80;8.40;;;8.50;1.00;;;;;;5003024;28;20512;-73
2023/12/09 07:50:24;;;;;;;12.70;7.50;;;8.60;1.00;;;;;;5009781;28;20559;-75
2023/12/09 07:52:49;;;;;;;18.33;8.67;;;8.60;1.00;;;;;;5006078;28;20183;-72
2023/12/09 07:55:16;;;;;;;18.07;7.30;;;8.70;1.00;;;;;;4991755;28;20261;-74
2023/12/09 07:57:41;;;;;;;18.13;7.30;;;8.60;1.00;;;;;;4993306;28;20194;-74
2023/12/09 08:00:07;;;;;;;12.10;6.83;;;8.60;1.00;;;;;;5010786;28;20523;-73
2023/12/09 08:02:34;;;;;;;13.83;7.27;;;8.60;1.00;;;;;;5009283;28;20590;-74
2023/12/09 08:04:59;;;;;;;14.30;6.93;;;8.70;1.00;;;;;;5002847;28;20438;-73
2023/12/09 08:07:25;;;;;;;12.17;7.00;;;8.60;1.00;;;;;;5010858;28;20496;-75
2023/12/09 08:09:50;;;;;;;23.20;8.47;;;8.60;1.00;;;;;;5010425;28;20265;-72
2023/12/09 08:12:16;;;;;;;13.93;8.17;;;8.60;1.00;;;;;;5002721;28;20225;-73
2023/12/09 08:14:41;;;;;;;20.80;8.73;;;8.60;1.00;;;;;;5008877;28;20201;-73
2023/12/09 08:17:07;;;;;;;20.20;8.83;;;8.60;1.00;;;;;;5007805;28;20593;-73
2023/12/09 08:19:33;;;;;;;15.07;7.63;;;8.70;1.00;;;;;;5006960;28;20211;-73
2023/12/09 08:21:59;;;;;;;11.87;6.93;;;8.50;1.00;;;;;;5001730;28;20607;-73
2023/12/09 08:24:24;;;;;;;12.07;7.03;;;6.50;1.00;;;;;;5004054;28;20765;-75
2023/12/09 08:26:50;;;;;;;17.70;7.20;;;8.50;1.00;;;;;;4995034;28;20425;-75
2023/12/09 08:29:16;;;;;;;16.83;6.90;;;8.70;1.00;;;;;;5010148;28;20210;-75
2023/12/09 08:31:41;;;;;;;18.77;7.17;;;8.80;1.00;;;;;;5008765;28;20755;-73
2023/12/09 08:34:07;;;;;;;13.10;6.43;;;8.90;1.00;;;;;;5004171;28;20179;-73
2023/12/09 08:36:32;;;;;;;19.90;6.87;;;8.90;1.00;;;;;;5008530;28;20223;-72
2023/12/09 08:39:01;;;;;;;16.47;7.60;;;9.20;1.00;;;;;;4999883;28;20462;-74
2023/12/09 08:41:26;;;;;;;15.30;8.40;;;9.20;1.00;;;;;;5008899;28;20190;-76
2023/12/09 08:43:52;;;;;;;17.30;8.70;;;9.20;1.00;;;;;;5006586;28;20945;-73
2023/12/09 08:46:18;;;;;;;17.77;8.37;;;9.30;1.00;;;;;;4997465;28;20234;-74
2023/12/09 08:48:44;;;;;;;14.53;7.70;;;9.40;1.00;;;;;;5008341;28;20429;-73
2023/12/09 08:51:10;;;;;;;15.10;7.87;;;9.40;1.00;;;;;;4994772;28;20934;-75
2023/12/09 08:53:36;;;;;;;17.53;7.20;;;9.40;1.00;;;;;;4988649;28;20458;-75
2023/12/09 08:56:01;;;;;;;15.53;7.27;;;9.50;1.00;;;;;;4989175;28;20555;-75
2023/12/09 08:58:27;;;;;;;13.37;6.70;;;9.40;1.00;;;;;;4994431;28;20893;-73
2023/12/09 09:00:52;;;;;;;29.80;10.60;;;9.40;1.00;;;;;;5007721;28;20210;-74
2023/12/09 09:03:18;;;;;;;15.83;6.80;;;9.30;1.00;;;;;;5008512;28;20179;-75
2023/12/09 09:05:43;;;;;;;20.17;8.00;;;9.30;1.00;;;;;;5008312;28;20178;-74
2023/12/09 09:08:09;;;;;;;11.83;6.10;;;9.20;1.00;;;;;;5004314;28;20186;-74
2023/12/09 09:10:34;;;;;;;10.53;6.20;;;9.30;1.00;;;;;;4997400;28;20215;-75
2023/12/09 09:13:00;;;;;;;15.60;6.17;;;9.30;1.00;;;;;;5001839;28;20182;-75
2023/12/09 09:15:27;;;;;;;9.60;5.40;;;9.30;1.00;;;;;;4996108;28;20582;-75
2023/12/09 09:17:52;;;;;;;10.10;5.00;;;9.20;1.00;;;;;;4996975;28;20742;-76
2023/12/09 09:20:18;;;;;;;12.07;5.60;;;9.30;1.00;;;;;;4993644;28;20635;-77
2023/12/09 09:22:43;;;;;;;9.37;5.60;;;9.20;1.00;;;;;;5006485;28;20197;-73
2023/12/09 09:25:09;;;;;;;9.97;4.87;;;9.30;1.00;;;;;;5003129;28;20186;-75
2023/12/09 09:27:35;;;;;;;9.60;5.00;;;9.30;1.00;;;;;;5001015;28;20201;-74
2023/12/09 09:30:00;;;;;;;14.87;5.40;;;9.30;1.00;;;;;;5008075;28;20205;-75
2023/12/09 09:32:26;;;;;;;11.47;5.00;;;9.40;1.00;;;;;;4997064;28;20184;-76
2023/12/09 09:34:52;;;;;;;9.10;5.10;;;9.30;1.00;;;;;;5005934;28;20265;-73
2023/12/09 09:37:17;;;;;;;8.07;4.73;;;9.40;1.00;;;;;;5003652;28;20564;-74
2023/12/09 09:39:43;;;;;;;10.47;5.57;;;9.50;1.00;;;;;;5007598;28;20303;-75
2023/12/09 09:42:14;;;;;;;15.00;6.00;;;9.60;1.00;;;;;;5002081;28;20217;-75
2023/12/09 09:44:49;;;;;;;14.13;4.90;;;9.50;1.00;;;;;;4989529;28;20315;-75
2023/12/09 09:47:18;;;;;;;10.67;5.67;;;9.70;1.00;;;;;;4994422;28;20440;-74
2023/12/09 09:49:46;;;;;;;8.27;4.50;;;9.70;1.00;;;;;;5000756;28;20489;-74
2023/12/09 09:52:14;;;;;;;12.40;5.27;;;9.80;1.00;;;;;;5004685;28;20625;-76
2023/12/09 09:54:42;;;;;;;12.33;6.00;;;9.80;1.00;;;;;;4988134;28;20423;-76
2023/12/09 09:57:09;;;;;;;13.67;5.80;;;9.90;1.00;;;;;;4993222;28;20417;-75
2023/12/09 09:59:35;;;;;;;9.97;4.97;;;10.10;1.00;;;;;;4997262;28;20918;-76
2023/12/09 10:02:04;;;;;;;13.03;5.13;;;10.00;1.00;;;;;;4989796;28;20560;-75
2023/12/09 10:04:30;;;;;;;12.37;6.13;;;10.00;1.00;;;;;;5004999;28;20792;-74
2023/12/09 10:06:57;;;;;;;10.23;5.50;;;10.10;1.00;;;;;;5000087;28;20430;-74
2023/12/09 10:09:23;;;;;;;13.83;5.63;;;10.10;1.00;;;;;;5008868;28;20198;-74
2023/12/09 10:11:49;;;;;;;9.50;5.40;;;10.00;1.00;;;;;;5000907;28;20514;-77
2023/12/09 10:14:15;;;;;;;10.77;5.60;;;10.00;1.00;;;;;;5001316;28;20788;-73
2023/12/09 10:16:42;;;;;;;11.30;5.30;;;10.00;1.00;;;;;;4994363;28;20191;-74
2023/12/09 10:19:09;;;;;;;9.87;5.00;;;10.10;1.00;;;;;;5001225;28;20453;-74
2023/12/09 10:21:36;;;;;;;9.93;5.00;;;10.20;1.00;;;;;;5000985;28;20917;-75
2023/12/09 10:24:03;;;;;;;11.00;5.00;;;10.20;1.00;;;;;;4986874;28;20509;-75
2023/12/09 10:26:29;;;;;;;12.50;5.03;;;10.30;1.00;;;;;;4988411;28;21094;-75
2023/12/09 10:28:55;;;;;;;10.37;5.47;;;10.40;1.00;;;;;;4994436;28;20426;-74
2023/12/09 10:31:20;;;;;;;14.27;6.47;;;10.40;1.00;;;;;;4997419;28;20234;-75
2023/12/09 10:33:46;;;;;;;16.70;7.67;;;10.60;1.00;;;;;;4999224;28;20183;-75
2023/12/09 10:36:12;;;;;;;15.50;7.17;;;10.60;1.00;;;;;;5006678;28;20221;-76
2023/12/09 10:38:42;;;;;;;13.70;5.33;;;10.80;1.00;;;;;;4993762;28;20183;-76
2023/12/09 10:41:10;;;;;;;9.70;5.23;;;10.80;1.00;;;;;;4991307;28;20425;-77
2023/12/09 10:43:37;;;;;;;11.97;5.30;;;10.80;1.00;;;;;;5003333;28;20447;-75
2023/12/09 10:46:03;;;;;;;9.00;5.70;;;10.70;1.00;;;;;;4987602;28;20433;-75
2023/12/09 10:48:29;;;;;;;13.23;5.77;;;10.90;1.00;;;;;;4995740;28;20821;-76
2023/12/09 10:50:54;;;;;;;13.30;5.57;;;10.70;1.00;;;;;;4991461;28;20226;-76
2023/12/09 10:53:20;;;;;;;17.10;6.17;;;10.80;1.00;;;;;;5004152;28;20517;-75
2023/12/09 10:55:47;;;;;;;13.10;5.70;;;10.80;1.00;;;;;;4988510;28;20221;-74
2023/12/09 10:58:14;;;;;;;7.93;4.80;;;10.80;1.00;;;;;;5009347;28;20206;-75
2023/12/09 11:00:41;;;;;;;8.83;5.07;;;10.70;1.00;;;;;;4996326;28;20450;-74
2023/12/09 11:03:08;;;;;;;7.93;4.77;;;10.60;1.00;;;;;;4984479;28;20816;-76
2023/12/09 11:05:51;;;;;;;9.53;4.60;;;10.50;1.00;;;;;;5006267;28;20421;-74
2023/12/09 11:08:18;;;;;;;10.27;4.60;;;10.50;1.00;;;;;;4988247;28;20430;-74
2023/12/09 11:10:44;;;;;;;12.70;4.90;;;10.40;1.00;;;;;;5003817;28;20497;-75
2023/12/09 11:13:09;;;;;;;8.80;4.40;;;10.40;1.00;;;;;;5011931;28;20927;-76
2023/12/09 11:15:35;;;;;;;9.73;4.30;;;10.40;1.00;;;;;;5001303;28;20449;-75
2023/12/09 11:18:09;;;;;;;9.70;4.30;;;10.30;1.00;;;;;;4999208;28;20187;-74
2023/12/09 11:20:39;;;;;;;9.80;4.57;;;10.30;1.00;;;;;;4992809;28;20508;-75
2023/12/09 11:23:08;;;;;;;12.47;4.40;;;10.30;1.00;;;;;;5010208;28;20432;-75
2023/12/09 11:25:38;;;;;;;13.97;4.57;;;10.40;1.00;;;;;;4996353;28;20430;-75
2023/12/09 11:28:04;;;;;;;15.10;4.90;;;10.40;1.00;;;;;;5010539;28;20538;-75
2023/12/09 11:30:41;;;;;;;9.67;3.80;;;10.40;1.00;;;;;;5005976;28;20473;-76
2023/12/09 11:33:07;;;;;;;7.17;3.37;;;10.40;1.00;;;;;;4998392;28;20257;-75
2023/12/09 11:35:35;;;;;;;7.00;4.03;;;10.40;1.00;;;;;;5011725;28;20456;-76
2023/12/09 11:38:02;;;;;;;9.00;3.87;;;10.40;1.00;;;;;;5004095;28;20516;-76
2023/12/09 11:40:29;;;;;;;7.50;4.13;;;10.60;1.00;;;;;;4997203;28;20449;-75
2023/12/09 11:42:59;;;;;;;8.67;4.87;;;10.70;1.00;;;;;;5003302;28;20437;-75
2023/12/09 11:45:27;;;;;;;6.63;4.37;;;10.80;1.00;;;;;;5003225;28;20532;-76
2023/12/09 11:47:53;;;;;;;15.00;5.40;;;11.00;1.00;;;;;;5007749;28;20433;-74
2023/12/09 11:50:18;;;;;;;10.63;4.67;;;11.30;1.00;;;;;;5009099;28;20464;-74
2023/12/09 11:52:45;;;;;;;12.03;5.40;;;11.90;1.00;;;;;;5002054;28;20194;-74
2023/12/09 11:55:11;;;;;;;9.20;5.67;;;12.10;1.00;;;;;;4990367;28;20187;-76
2023/12/09 11:57:40;;;;;;;11.83;5.53;;;12.10;1.00;;;;;;4998399;28;20436;-75
2023/12/09 12:00:06;;;;;;;10.13;4.80;;;11.90;1.00;;;;;;5009997;28;20544;-75
2023/12/09 12:02:33;;;;;;;10.80;4.83;;;12.10;1.00;;;;;;4990833;28;20476;-77
2023/12/09 12:04:59;;;;;;;9.20;5.30;;;12.40;1.00;;;;;;5006866;28;20437;-76
2023/12/09 12:07:24;;;;;;;9.90;4.90;;;12.70;1.00;;;;;;5004785;28;20580;-75
2023/12/09 12:09:50;;;;;;;10.90;5.37;;;12.70;1.00;;;;;;5000396;28;20207;-73
2023/12/09 12:12:17;;;;;;;9.07;5.37;;;12.70;1.00;;;;;;5002081;28;20201;-75
2023/12/09 12:14:43;;;;;;;16.93;5.30;;;12.50;1.00;;;;;;5005226;28;20483;-74
2023/12/09 12:17:09;;;;;;;11.13;4.90;;;12.40;1.00;;;;;;4999477;28;20433;-77
2023/12/09 12:19:35;;;;;;;10.77;5.40;;;12.10;1.00;;;;;;4996395;28;20210;-74
2023/12/09 12:22:01;;;;;;;9.77;4.70;;;11.80;1.00;;;;;;5007719;28;20880;-75
2023/12/09 12:24:27;;;;;;;9.27;5.40;;;11.70;1.00;;;;;;4991570;28;20521;-75
2023/12/09 12:26:59;;;;;;;7.23;3.90;;;11.80;1.00;;;;;;4991822;28;20199;-74
2023/12/09 12:29:25;;;;;;;8.87;3.87;;;11.90;1.00;;;;;;5007447;28;20199;-74
2023/12/09 12:31:50;;;;;;;7.17;4.27;;;11.80;1.00;;;;;;4998754;28;20442;-73
2023/12/09 12:34:17;;;;;;;9.70;5.03;;;11.30;1.00;;;;;;4996704;28;20433;-75
2023/12/09 12:36:46;;;;;;;10.47;4.43;;;11.80;1.00;;;;;;5005360;28;20179;-74
2023/12/09 12:39:12;;;;;;;7.93;4.20;;;11.70;1.00;;;;;;5001982;28;20488;-75
2023/12/09 12:41:41;;;;;;;7.60;3.97;;;11.60;1.00;;;;;;5007281;28;20427;-75
2023/12/09 12:44:07;;;;;;;7.27;3.80;;;11.70;1.00;;;;;;5009367;28;20200;-74
2023/12/09 12:46:33;;;;;;;11.50;3.60;;;11.60;1.00;;;;;;4998197;28;20452;-75